Roberts Field Redmond US
ICAO: KRDM
IATA: RDM
Category: Medium
Scheduled Services: Yes

Elevation: 3080 ft
TransAlt. 18000 ft.

Airport Communications:
ASOS:119.025
SEATTLE CNTR:128.15
CTAF:124.5
GND:121.8
MC MINNVILLE RDO:122.5
REDMOND TWR:124.5
UNICOM:122.95

KRDM Zoom In..

Runways:

(A) RW 04 length 7038 ft width 150 ft
---- / hdg 42

(B) RW 10 length 7006 ft width 100 ft
---- / hdg 104

(C) RW 22 length 7038 ft width 150 ft
ILS 109.10 / hdg 222

(D) RW 28 length 7006 ft width 100 ft
---- / hdg 284

Location; KRDM
Day. 22 / Time. 21.56 Zulu
* Altimeter: 29.84
* Temperature: 19° c. 66.2°f.
* Wind from: 290° Speed 20 kn with Gusts up to 28 kn.
Dewpoint: -11° c.
Visibility: 10 Statute Miles.
Clouds: Clear (automated report).

KRDM 222156Z 29020G28KT 10SM CLR 19/M11 A2984 RMK AO2 PK WND 30030/2122 SLP096 T01941111

Going to: --> -->


Wind From 290°
Speed 20 kn.

 
 
jpsmedia worldairports.se 2021   terms of use